Terminal Aerodrome Forecast
Issued by NWS

Home | Current Version | Previous Version | Text Only | Print | Product List | Glossary On
Versions: 1 2 3 4 5 6 7 8 9 10 11 12 13
000
FTUS43 KJKL 312300
TAFSME
TAF
KSME 312331Z 0100/0124 VRB03KT P6SM OVC100
     FM011500 18006KT P6SM OVC120
     FM012000 18009KT 5SM -RA SCT025 OVC050=

USA.gov is the U.S. government's official web portal to all federal, state and local government web resources and services.